sensor_id;sensor_type;location;lat;lon;timestamp;pressure;altitude;pressure_sealevel;temperature;humidity
55271;BME280;41132;47.162;9.470;2022-07-30T00:00:42;96783.31;;;16.91;100.00
55271;BME280;41132;47.162;9.470;2022-07-30T00:03:07;96767.81;;;16.74;100.00
55271;BME280;41132;47.162;9.470;2022-07-30T00:05:32;96796.13;;;16.88;100.00
55271;BME280;41132;47.162;9.470;2022-07-30T00:07:58;96793.84;;;16.85;100.00
55271;BME280;41132;47.162;9.470;2022-07-30T00:10:23;96800.81;;;16.71;100.00
55271;BME280;41132;47.162;9.470;2022-07-30T00:12:49;96797.34;;;16.85;100.00
55271;BME280;41132;47.162;9.470;2022-07-30T00:15:14;96769.06;;;16.78;100.00
55271;BME280;41132;47.162;9.470;2022-07-30T00:17:40;96783.69;;;16.88;100.00
55271;BME280;41132;47.162;9.470;2022-07-30T00:20:06;96787.56;;;16.86;100.00
55271;BME280;41132;47.162;9.470;2022-07-30T00:22:32;96788.53;;;16.85;100.00
55271;BME280;41132;47.162;9.470;2022-07-30T00:24:57;96783.94;;;16.94;100.00
55271;BME280;41132;47.162;9.470;2022-07-30T00:27:23;96789.09;;;16.80;100.00
55271;BME280;41132;47.162;9.470;2022-07-30T00:29:48;96775.22;;;16.78;100.00
55271;BME280;41132;47.162;9.470;2022-07-30T00:32:14;96785.78;;;16.93;100.00
55271;BME280;41132;47.162;9.470;2022-07-30T00:34:40;96781.75;;;16.97;100.00
55271;BME280;41132;47.162;9.470;2022-07-30T00:37:05;96775.94;;;16.87;100.00
55271;BME280;41132;47.162;9.470;2022-07-30T00:39:30;96787.56;;;16.71;100.00
55271;BME280;41132;47.162;9.470;2022-07-30T00:42:01;96788.00;;;16.75;100.00
55271;BME280;41132;47.162;9.470;2022-07-30T00:44:27;96774.72;;;16.89;100.00
55271;BME280;41132;47.162;9.470;2022-07-30T00:46:53;96777.84;;;16.93;100.00
55271;BME280;41132;47.162;9.470;2022-07-30T00:49:19;96783.38;;;16.98;100.00
55271;BME280;41132;47.162;9.470;2022-07-30T00:51:44;96784.41;;;16.97;100.00
55271;BME280;41132;47.162;9.470;2022-07-30T00:54:10;96780.41;;;16.86;100.00
55271;BME280;41132;47.162;9.470;2022-07-30T00:56:36;96777.38;;;16.89;100.00
55271;BME280;41132;47.162;9.470;2022-07-30T00:59:01;96769.38;;;16.83;100.00
55271;BME280;41132;47.162;9.470;2022-07-30T01:01:27;96780.31;;;16.95;100.00
55271;BME280;41132;47.162;9.470;2022-07-30T01:03:52;96784.41;;;16.97;100.00
55271;BME280;41132;47.162;9.470;2022-07-30T01:06:17;96782.44;;;16.84;100.00
55271;BME280;41132;47.162;9.470;2022-07-30T01:08:43;96791.66;;;16.74;100.00
55271;BME280;41132;47.162;9.470;2022-07-30T01:11:09;96787.56;;;16.86;100.00
55271;BME280;41132;47.162;9.470;2022-07-30T01:13:34;96787.44;;;16.94;100.00
55271;BME280;41132;47.162;9.470;2022-07-30T01:15:59;96802.16;;;16.97;100.00
55271;BME280;41132;47.162;9.470;2022-07-30T01:18:27;96781.69;;;16.90;100.00
55271;BME280;41132;47.162;9.470;2022-07-30T01:21:14;96791.84;;;16.87;100.00
55271;BME280;41132;47.162;9.470;2022-07-30T01:23:43;96791.91;;;16.94;100.00
55271;BME280;41132;47.162;9.470;2022-07-30T01:26:12;96786.34;;;16.88;100.00
55271;BME280;41132;47.162;9.470;2022-07-30T01:28:41;96760.38;;;16.99;100.00
55271;BME280;41132;47.162;9.470;2022-07-30T01:31:09;96774.03;;;17.02;100.00
55271;BME280;41132;47.162;9.470;2022-07-30T01:33:39;96793.00;;;16.99;100.00
55271;BME280;41132;47.162;9.470;2022-07-30T01:36:10;96784.72;;;16.73;100.00
55271;BME280;41132;47.162;9.470;2022-07-30T01:38:37;96777.78;;;16.72;100.00
55271;BME280;41132;47.162;9.470;2022-07-30T01:41:05;96774.72;;;16.89;100.00
55271;BME280;41132;47.162;9.470;2022-07-30T01:43:31;96779.97;;;16.83;100.00
55271;BME280;41132;47.162;9.470;2022-07-30T01:45:58;96772.66;;;16.70;100.00
55271;BME280;41132;47.162;9.470;2022-07-30T01:48:26;96787.19;;;16.74;100.00
55271;BME280;41132;47.162;9.470;2022-07-30T01:50:55;96785.28;;;16.83;100.00
55271;BME280;41132;47.162;9.470;2022-07-30T01:53:24;96789.63;;;16.90;100.00
55271;BME280;41132;47.162;9.470;2022-07-30T01:55:50;96779.28;;;16.96;100.00
55271;BME280;41132;47.162;9.470;2022-07-30T01:58:19;96780.03;;;16.89;100.00
55271;BME280;41132;47.162;9.470;2022-07-30T02:00:47;96782.00;;;16.81;100.00
55271;BME280;41132;47.162;9.470;2022-07-30T02:03:13;96762.38;;;16.60;100.00
55271;BME280;41132;47.162;9.470;2022-07-30T02:05:41;96786.34;;;16.88;100.00
55271;BME280;41132;47.162;9.470;2022-07-30T02:08:16;96785.31;;;16.89;100.00
55271;BME280;41132;47.162;9.470;2022-07-30T02:10:51;96782.06;;;16.87;100.00
55271;BME280;41132;47.162;9.470;2022-07-30T02:13:22;96783.78;;;16.95;100.00
55271;BME280;41132;47.162;9.470;2022-07-30T02:15:58;96784.31;;;17.12;100.00
55271;BME280;41132;47.162;9.470;2022-07-30T02:18:32;96788.38;;;16.86;100.00
55271;BME280;41132;47.162;9.470;2022-07-30T02:21:03;96782.88;;;16.88;100.00
55271;BME280;41132;47.162;9.470;2022-07-30T02:23:34;96789.63;;;16.90;100.00
55271;BME280;41132;47.162;9.470;2022-07-30T02:26:00;96789.09;;;16.80;100.00
55271;BME280;41132;47.162;9.470;2022-07-30T02:28:29;96780.16;;;16.81;100.00
55271;BME280;41132;47.162;9.470;2022-07-30T02:30:58;96775.22;;;16.78;100.00
55271;BME280;41132;47.162;9.470;2022-07-30T02:33:30;96779.41;;;16.87;100.00
55271;BME280;41132;47.162;9.470;2022-07-30T02:35:58;96777.66;;;16.95;100.00
55271;BME280;41132;47.162;9.470;2022-07-30T02:38:25;96771.06;;;16.90;100.00
55271;BME280;41132;47.162;9.470;2022-07-30T02:40:53;96771.31;;;16.96;100.00
55271;BME280;41132;47.162;9.470;2022-07-30T02:43:21;96769.94;;;17.00;100.00
55271;BME280;41132;47.162;9.470;2022-07-30T02:45:49;96766.78;;;16.89;100.00
55271;BME280;41132;47.162;9.470;2022-07-30T02:48:15;96765.22;;;16.95;100.00
55271;BME280;41132;47.162;9.470;2022-07-30T02:50:42;96775.75;;;16.88;100.00
55271;BME280;41132;47.162;9.470;2022-07-30T02:53:10;96763.50;;;16.87;100.00
55271;BME280;41132;47.162;9.470;2022-07-30T02:55:37;96762.38;;;16.97;100.00
55271;BME280;41132;47.162;9.470;2022-07-30T02:58:05;96752.34;;;16.92;100.00
55271;BME280;41132;47.162;9.470;2022-07-30T03:00:32;96748.84;;;16.91;100.00
55271;BME280;41132;47.162;9.470;2022-07-30T03:02:59;96768.19;;;16.85;100.00
55271;BME280;41132;47.162;9.470;2022-07-30T03:05:25;96769.69;;;16.95;100.00
55271;BME280;41132;47.162;9.470;2022-07-30T03:07:53;96772.13;;;16.75;100.00
55271;BME280;41132;47.162;9.470;2022-07-30T03:10:19;96774.94;;;16.88;100.00
55271;BME280;41132;47.162;9.470;2022-07-30T03:12:45;96776.63;;;16.96;100.00
55271;BME280;41132;47.162;9.470;2022-07-30T03:15:11;96773.84;;;16.82;100.00
55271;BME280;41132;47.162;9.470;2022-07-30T03:17:41;96771.47;;;16.87;100.00
55271;BME280;41132;47.162;9.470;2022-07-30T03:20:09;96764.34;;;16.73;100.00
55271;BME280;41132;47.162;9.470;2022-07-30T03:22:40;96757.41;;;16.72;100.00
55271;BME280;41132;47.162;9.470;2022-07-30T03:25:07;96747.53;;;16.81;100.00
55271;BME280;41132;47.162;9.470;2022-07-30T03:27:35;96764.69;;;16.85;100.00
55271;BME280;41132;47.162;9.470;2022-07-30T03:30:03;96771.47;;;16.87;100.00
55271;BME280;41132;47.162;9.470;2022-07-30T03:32:29;96774.06;;;16.81;100.00
55271;BME280;41132;47.162;9.470;2022-07-30T03:34:55;96771.66;;;16.71;100.00
55271;BME280;41132;47.162;9.470;2022-07-30T03:37:23;96773.47;;;16.70;100.00
55271;BME280;41132;47.162;9.470;2022-07-30T03:39:49;96771.84;;;16.69;100.00
55271;BME280;41132;47.162;9.470;2022-07-30T03:42:14;96772.75;;;16.77;100.00
55271;BME280;41132;47.162;9.470;2022-07-30T03:44:41;96773.72;;;16.76;100.00
55271;BME280;41132;47.162;9.470;2022-07-30T03:47:09;96766.09;;;16.66;100.00
55271;BME280;41132;47.162;9.470;2022-07-30T03:49:36;96772.13;;;16.60;100.00
55271;BME280;41132;47.162;9.470;2022-07-30T03:52:02;96778.72;;;16.64;100.00
55271;BME280;41132;47.162;9.470;2022-07-30T03:54:30;96786.59;;;16.57;100.00
55271;BME280;41132;47.162;9.470;2022-07-30T03:56:59;96780.81;;;16.68;100.00
55271;BME280;41132;47.162;9.470;2022-07-30T03:59:24;96786.19;;;16.75;100.00
55271;BME280;41132;47.162;9.470;2022-07-30T04:01:50;96775.75;;;16.74;100.00
55271;BME280;41132;47.162;9.470;2022-07-30T04:04:15;96790.19;;;16.71;100.00
55271;BME280;41132;47.162;9.470;2022-07-30T04:06:40;96786.03;;;16.62;100.00
55271;BME280;41132;47.162;9.470;2022-07-30T04:09:11;96795.16;;;16.74;100.00
55271;BME280;41132;47.162;9.470;2022-07-30T04:11:37;96791.88;;;16.72;100.00
55271;BME280;41132;47.162;9.470;2022-07-30T04:14:03;96798.84;;;16.58;100.00
55271;BME280;41132;47.162;9.470;2022-07-30T04:16:42;96802.78;;;16.33;100.00
55271;BME280;41132;47.162;9.470;2022-07-30T04:19:13;96796.47;;;16.48;100.00
55271;BME280;41132;47.162;9.470;2022-07-30T04:21:40;96800.94;;;16.63;100.00
55271;BME280;41132;47.162;9.470;2022-07-30T04:24:07;96810.59;;;16.70;100.00
55271;BME280;41132;47.162;9.470;2022-07-30T04:26:35;96809.59;;;16.72;100.00
55271;BME280;41132;47.162;9.470;2022-07-30T04:29:04;96808.41;;;16.74;100.00
55271;BME280;41132;47.162;9.470;2022-07-30T04:31:30;96818.72;;;16.84;100.00
55271;BME280;41132;47.162;9.470;2022-07-30T04:34:00;96824.09;;;16.76;100.00
55271;BME280;41132;47.162;9.470;2022-07-30T04:36:26;96828.75;;;16.74;100.00
55271;BME280;41132;47.162;9.470;2022-07-30T04:38:51;96809.69;;;16.63;100.00
55271;BME280;41132;47.162;9.470;2022-07-30T04:41:16;96822.94;;;16.78;100.00
55271;BME280;41132;47.162;9.470;2022-07-30T04:43:42;96824.94;;;16.76;100.00
55271;BME280;41132;47.162;9.470;2022-07-30T04:46:07;96827.88;;;16.81;100.00
55271;BME280;41132;47.162;9.470;2022-07-30T04:48:32;96827.63;;;16.98;100.00
55271;BME280;41132;47.162;9.470;2022-07-30T04:50:59;96829.78;;;16.87;100.00
55271;BME280;41132;47.162;9.470;2022-07-30T04:53:27;96831.25;;;16.90;100.00
55271;BME280;41132;47.162;9.470;2022-07-30T04:55:53;96823.91;;;16.92;100.00
55271;BME280;41132;47.162;9.470;2022-07-30T04:58:21;96829.97;;;16.86;100.00
55271;BME280;41132;47.162;9.470;2022-07-30T05:00:48;96826.13;;;16.88;100.00
55271;BME280;41132;47.162;9.470;2022-07-30T05:03:15;96828.09;;;17.01;100.00
55271;BME280;41132;47.162;9.470;2022-07-30T05:05:41;96813.09;;;16.94;100.00
55271;BME280;41132;47.162;9.470;2022-07-30T05:08:07;96811.47;;;16.93;100.00
55271;BME280;41132;47.162;9.470;2022-07-30T05:10:33;96822.44;;;16.89;100.00
55271;BME280;41132;47.162;9.470;2022-07-30T05:12:58;96821.19;;;17.07;100.00
55271;BME280;41132;47.162;9.470;2022-07-30T05:15:24;96811.81;;;17.04;100.00
55271;BME280;41132;47.162;9.470;2022-07-30T05:17:50;96828.66;;;17.18;100.00
55271;BME280;41132;47.162;9.470;2022-07-30T05:20:15;96841.16;;;17.03;100.00
55271;BME280;41132;47.162;9.470;2022-07-30T05:22:40;96843.94;;;16.95;100.00
55271;BME280;41132;47.162;9.470;2022-07-30T05:25:06;96833.31;;;17.16;100.00
55271;BME280;41132;47.162;9.470;2022-07-30T05:27:31;96839.28;;;17.18;100.00
55271;BME280;41132;47.162;9.470;2022-07-30T05:29:57;96831.81;;;17.07;100.00
55271;BME280;41132;47.162;9.470;2022-07-30T05:32:22;96847.31;;;16.88;100.00
55271;BME280;41132;47.162;9.470;2022-07-30T05:34:47;96847.28;;;17.03;100.00
55271;BME280;41132;47.162;9.470;2022-07-30T05:37:13;96827.16;;;17.09;100.00
55271;BME280;41132;47.162;9.470;2022-07-30T05:39:38;96838.00;;;17.14;100.00
55271;BME280;41132;47.162;9.470;2022-07-30T05:42:04;96839.34;;;17.25;100.00
55271;BME280;41132;47.162;9.470;2022-07-30T05:44:29;96842.13;;;17.38;100.00
55271;BME280;41132;47.162;9.470;2022-07-30T05:46:54;96840.16;;;17.25;100.00
55271;BME280;41132;47.162;9.470;2022-07-30T05:49:20;96852.34;;;17.20;100.00
55271;BME280;41132;47.162;9.470;2022-07-30T05:51:45;96853.69;;;17.30;100.00
55271;BME280;41132;47.162;9.470;2022-07-30T05:54:11;96845.53;;;17.32;100.00
55271;BME280;41132;47.162;9.470;2022-07-30T05:56:36;96852.34;;;17.41;100.00
55271;BME280;41132;47.162;9.470;2022-07-30T05:59:02;96860.44;;;17.54;100.00
55271;BME280;41132;47.162;9.470;2022-07-30T06:01:27;96854.19;;;17.62;100.00
55271;BME280;41132;47.162;9.470;2022-07-30T06:03:53;96865.59;;;17.63;100.00
55271;BME280;41132;47.162;9.470;2022-07-30T06:06:18;96858.69;;;17.68;100.00
55271;BME280;41132;47.162;9.470;2022-07-30T06:08:44;96850.75;;;17.68;100.00
55271;BME280;41132;47.162;9.470;2022-07-30T06:11:09;96865.81;;;17.83;100.00
55271;BME280;41132;47.162;9.470;2022-07-30T06:13:35;96861.81;;;17.72;100.00
55271;BME280;41132;47.162;9.470;2022-07-30T06:16:00;96871.22;;;17.74;100.00
55271;BME280;41132;47.162;9.470;2022-07-30T06:18:26;96869.94;;;17.70;100.00
55271;BME280;41132;47.162;9.470;2022-07-30T06:20:52;96870.97;;;17.69;100.00
55271;BME280;41132;47.162;9.470;2022-07-30T06:23:19;96876.53;;;17.74;100.00
55271;BME280;41132;47.162;9.470;2022-07-30T06:25:46;96870.75;;;17.71;100.00
55271;BME280;41132;47.162;9.470;2022-07-30T06:28:12;96886.31;;;17.52;100.00
55271;BME280;41132;47.162;9.470;2022-07-30T06:30:38;96887.34;;;17.51;100.00
55271;BME280;41132;47.162;9.470;2022-07-30T06:33:04;96887.84;;;17.62;100.00
55271;BME280;41132;47.162;9.470;2022-07-30T06:35:30;96864.09;;;17.53;100.00
55271;BME280;41132;47.162;9.470;2022-07-30T06:37:55;96883.72;;;17.81;100.00
55271;BME280;41132;47.162;9.470;2022-07-30T06:40:21;96885.69;;;18.22;100.00
55271;BME280;41132;47.162;9.470;2022-07-30T06:42:46;96892.88;;;18.28;100.00
55271;BME280;41132;47.162;9.470;2022-07-30T06:45:11;96887.69;;;18.48;100.00
55271;BME280;41132;47.162;9.470;2022-07-30T06:47:37;96879.91;;;18.81;100.00
55271;BME280;41132;47.162;9.470;2022-07-30T06:50:03;96891.66;;;18.65;100.00
55271;BME280;41132;47.162;9.470;2022-07-30T06:52:28;96901.31;;;18.38;100.00
55271;BME280;41132;47.162;9.470;2022-07-30T06:54:54;96896.94;;;18.24;100.00
55271;BME280;41132;47.162;9.470;2022-07-30T06:57:19;96893.53;;;18.02;100.00
55271;BME280;41132;47.162;9.470;2022-07-30T06:59:44;96903.44;;;18.21;100.00
55271;BME280;41132;47.162;9.470;2022-07-30T07:02:10;96906.81;;;18.36;100.00
55271;BME280;41132;47.162;9.470;2022-07-30T07:04:35;96919.13;;;18.38;100.00
55271;BME280;41132;47.162;9.470;2022-07-30T07:07:01;96906.56;;;18.25;100.00
55271;BME280;41132;47.162;9.470;2022-07-30T07:09:26;96911.81;;;18.18;100.00
55271;BME280;41132;47.162;9.470;2022-07-30T07:11:52;96922.25;;;18.20;100.00
55271;BME280;41132;47.162;9.470;2022-07-30T07:14:17;96906.84;;;18.08;100.00
55271;BME280;41132;47.162;9.470;2022-07-30T07:16:43;96918.47;;;18.07;100.00
55271;BME280;41132;47.162;9.470;2022-07-30T07:19:08;96918.56;;;18.21;100.00
55271;BME280;41132;47.162;9.470;2022-07-30T07:21:34;96912.09;;;18.02;100.00
55271;BME280;41132;47.162;9.470;2022-07-30T07:23:59;96911.47;;;18.00;100.00
55271;BME280;41132;47.162;9.470;2022-07-30T07:26:27;96908.81;;;18.00;100.00
55271;BME280;41132;47.162;9.470;2022-07-30T07:28:52;96935.84;;;18.10;100.00
55271;BME280;41132;47.162;9.470;2022-07-30T07:31:18;96930.50;;;18.03;100.00
55271;BME280;41132;47.162;9.470;2022-07-30T07:33:43;96920.88;;;18.02;100.00
55271;BME280;41132;47.162;9.470;2022-07-30T07:36:10;96922.16;;;18.06;100.00
55271;BME280;41132;47.162;9.470;2022-07-30T07:38:35;96925.81;;;18.05;100.00
55271;BME280;41132;47.162;9.470;2022-07-30T07:41:00;96921.28;;;17.99;100.00
55271;BME280;41132;47.162;9.470;2022-07-30T07:43:26;96922.16;;;18.06;100.00
55271;BME280;41132;47.162;9.470;2022-07-30T07:45:51;96918.06;;;18.04;100.00
55271;BME280;41132;47.162;9.470;2022-07-30T07:48:17;96930.34;;;18.11;100.00
55271;BME280;41132;47.162;9.470;2022-07-30T07:50:43;96922.03;;;18.14;100.00
55271;BME280;41132;47.162;9.470;2022-07-30T07:53:08;96916.66;;;18.08;100.00
55271;BME280;41132;47.162;9.470;2022-07-30T07:55:34;96907.13;;;17.92;100.00
55271;BME280;41132;47.162;9.470;2022-07-30T07:58:00;96924.50;;;17.94;100.00
55271;BME280;41132;47.162;9.470;2022-07-30T08:00:25;96926.88;;;17.83;100.00
55271;BME280;41132;47.162;9.470;2022-07-30T08:02:50;96919.84;;;17.97;100.00
55271;BME280;41132;47.162;9.470;2022-07-30T08:05:16;96921.53;;;18.04;100.00
55271;BME280;41132;47.162;9.470;2022-07-30T08:07:42;96927.56;;;18.20;100.00
55271;BME280;41132;47.162;9.470;2022-07-30T08:10:09;96923.66;;;18.15;100.00
55271;BME280;41132;47.162;9.470;2022-07-30T08:12:35;96915.06;;;18.13;100.00
55271;BME280;41132;47.162;9.470;2022-07-30T08:15:01;96913.75;;;18.66;100.00
55271;BME280;41132;47.162;9.470;2022-07-30T08:17:28;96906.97;;;18.98;100.00
55271;BME280;41132;47.162;9.470;2022-07-30T08:19:57;96915.09;;;19.38;100.00
55271;BME280;41132;47.162;9.470;2022-07-30T08:22:23;96901.75;;;19.31;100.00
55271;BME280;41132;47.162;9.470;2022-07-30T08:24:48;96906.03;;;19.32;100.00
55271;BME280;41132;47.162;9.470;2022-07-30T08:27:13;96917.06;;;19.16;100.00
55271;BME280;41132;47.162;9.470;2022-07-30T08:29:39;96920.50;;;19.10;100.00
55271;BME280;41132;47.162;9.470;2022-07-30T08:32:04;96918.34;;;19.33;100.00
55271;BME280;41132;47.162;9.470;2022-07-30T08:34:30;96907.28;;;19.36;100.00
55271;BME280;41132;47.162;9.470;2022-07-30T08:36:55;96919.34;;;19.26;100.00
55271;BME280;41132;47.162;9.470;2022-07-30T08:39:20;96918.16;;;19.41;100.00
55271;BME280;41132;47.162;9.470;2022-07-30T08:41:47;96902.16;;;19.28;100.00
55271;BME280;41132;47.162;9.470;2022-07-30T08:44:16;96919.19;;;19.47;100.00
55271;BME280;41132;47.162;9.470;2022-07-30T08:46:42;96911.63;;;19.57;100.00
55271;BME280;41132;47.162;9.470;2022-07-30T08:49:10;96917.66;;;19.99;100.00
55271;BME280;41132;47.162;9.470;2022-07-30T08:51:37;96916.00;;;19.85;100.00
55271;BME280;41132;47.162;9.470;2022-07-30T08:54:03;96921.13;;;20.00;100.00
55271;BME280;41132;47.162;9.470;2022-07-30T08:56:29;96911.09;;;19.95;100.00
55271;BME280;41132;47.162;9.470;2022-07-30T08:58:54;96923.78;;;19.93;100.00
55271;BME280;41132;47.162;9.470;2022-07-30T09:01:20;96908.41;;;19.95;100.00
55271;BME280;41132;47.162;9.470;2022-07-30T09:03:46;96903.72;;;20.11;100.00
55271;BME280;41132;47.162;9.470;2022-07-30T09:06:11;96918.88;;;20.03;100.00
55271;BME280;41132;47.162;9.470;2022-07-30T09:08:37;96924.38;;;20.42;100.00
55271;BME280;41132;47.162;9.470;2022-07-30T09:11:03;96907.06;;;20.78;100.00
55271;BME280;41132;47.162;9.470;2022-07-30T09:13:30;96915.06;;;20.78;100.00
55271;BME280;41132;47.162;9.470;2022-07-30T09:15:58;96906.13;;;20.59;100.00
55271;BME280;41132;47.162;9.470;2022-07-30T09:18:38;96907.25;;;20.96;100.00
55271;BME280;41132;47.162;9.470;2022-07-30T09:21:15;96913.66;;;21.27;100.00
55271;BME280;41132;47.162;9.470;2022-07-30T09:24:09;96898.13;;;21.11;100.00
55271;BME280;41132;47.162;9.470;2022-07-30T09:27:11;96900.28;;;21.40;100.00
55271;BME280;41132;47.162;9.470;2022-07-30T09:29:36;96899.38;;;21.53;100.00
55271;BME280;41132;47.162;9.470;2022-07-30T09:32:04;96898.75;;;22.08;100.00
55271;BME280;41132;47.162;9.470;2022-07-30T09:34:34;96891.44;;;22.47;100.00
55271;BME280;41132;47.162;9.470;2022-07-30T09:37:02;96898.41;;;22.66;100.00
55271;BME280;41132;47.162;9.470;2022-07-30T09:39:32;96899.66;;;22.64;100.00
55271;BME280;41132;47.162;9.470;2022-07-30T09:41:59;96894.91;;;22.29;100.00
55271;BME280;41132;47.162;9.470;2022-07-30T09:44:26;96885.56;;;22.13;100.00
55271;BME280;41132;47.162;9.470;2022-07-30T09:46:52;96890.94;;;22.06;100.00
55271;BME280;41132;47.162;9.470;2022-07-30T09:49:23;96889.19;;;21.94;100.00
55271;BME280;41132;47.162;9.470;2022-07-30T09:51:49;96871.59;;;21.61;100.00
55271;BME280;41132;47.162;9.470;2022-07-30T09:54:16;96896.47;;;21.55;100.00
55271;BME280;41132;47.162;9.470;2022-07-30T09:56:41;96891.25;;;20.90;100.00
55271;BME280;41132;47.162;9.470;2022-07-30T09:59:27;96878.13;;;20.88;100.00
55271;BME280;41132;47.162;9.470;2022-07-30T10:01:54;96872.00;;;21.26;100.00
55271;BME280;41132;47.162;9.470;2022-07-30T10:04:30;96872.25;;;21.81;100.00
55271;BME280;41132;47.162;9.470;2022-07-30T10:06:58;96874.88;;;21.63;100.00
55271;BME280;41132;47.162;9.470;2022-07-30T10:09:29;96870.72;;;21.35;100.00
55271;BME280;41132;47.162;9.470;2022-07-30T10:11:56;96864.47;;;21.10;100.00
55271;BME280;41132;47.162;9.470;2022-07-30T10:14:24;96860.38;;;21.45;100.00
55271;BME280;41132;47.162;9.470;2022-07-30T10:16:50;96867.72;;;21.18;100.00
55271;BME280;41132;47.162;9.470;2022-07-30T10:19:16;96866.56;;;21.08;100.00
55271;BME280;41132;47.162;9.470;2022-07-30T10:21:43;96859.53;;;21.13;100.00
55271;BME280;41132;47.162;9.470;2022-07-30T10:24:09;96862.50;;;21.30;100.00
55271;BME280;41132;47.162;9.470;2022-07-30T10:26:35;96875.06;;;21.86;100.00
55271;BME280;41132;47.162;9.470;2022-07-30T10:29:03;96865.66;;;21.84;100.00
55271;BME280;41132;47.162;9.470;2022-07-30T10:31:29;96879.41;;;21.87;100.00
55271;BME280;41132;47.162;9.470;2022-07-30T10:33:56;96874.00;;;22.19;100.00
55271;BME280;41132;47.162;9.470;2022-07-30T10:36:23;96879.88;;;21.78;100.00
55271;BME280;41132;47.162;9.470;2022-07-30T10:38:49;96871.06;;;21.45;100.00
55271;BME280;41132;47.162;9.470;2022-07-30T10:47:22;96891.47;;;20.88;100.00
55271;BME280;41132;47.162;9.470;2022-07-30T10:50:10;96897.34;;;21.03;100.00
55271;BME280;41132;47.162;9.470;2022-07-30T10:52:52;96893.63;;;21.11;100.00
55271;BME280;41132;47.162;9.470;2022-07-30T10:55:23;96899.41;;;21.01;100.00
55271;BME280;41132;47.162;9.470;2022-07-30T10:58:15;96901.25;;;21.08;100.00
55271;BME280;41132;47.162;9.470;2022-07-30T11:03:23;96904.44;;;21.23;100.00
55271;BME280;41132;47.162;9.470;2022-07-30T11:08:42;96891.44;;;21.33;100.00
55271;BME280;41132;47.162;9.470;2022-07-30T11:13:56;96891.00;;;21.43;100.00
55271;BME280;41132;47.162;9.470;2022-07-30T11:16:24;96894.44;;;21.50;100.00
55271;BME280;41132;47.162;9.470;2022-07-30T11:19:13;96873.66;;;21.59;100.00
55271;BME280;41132;47.162;9.470;2022-07-30T11:21:44;96889.00;;;21.95;100.00
55271;BME280;41132;47.162;9.470;2022-07-30T11:24:41;96880.47;;;22.05;100.00
55271;BME280;41132;47.162;9.470;2022-07-30T11:27:07;96877.44;;;22.01;100.00
55271;BME280;41132;47.162;9.470;2022-07-30T11:29:33;96883.00;;;22.25;98.18
55271;BME280;41132;47.162;9.470;2022-07-30T11:35:14;96881.00;;;22.14;99.40
55271;BME280;41132;47.162;9.470;2022-07-30T11:38:05;96880.09;;;22.01;94.82
55271;BME280;41132;47.162;9.470;2022-07-30T11:40:38;96870.06;;;21.97;100.00
55271;BME280;41132;47.162;9.470;2022-07-30T11:46:11;96872.91;;;22.02;99.47
55271;BME280;41132;47.162;9.470;2022-07-30T11:48:55;96867.09;;;22.05;95.04
55271;BME280;41132;47.162;9.470;2022-07-30T11:51:21;96876.63;;;22.01;97.20
55271;BME280;41132;47.162;9.470;2022-07-30T11:56:25;96867.59;;;22.20;78.35
55271;BME280;41132;47.162;9.470;2022-07-30T11:58:59;96857.31;;;22.24;89.47
55271;BME280;41132;47.162;9.470;2022-07-30T12:01:26;96850.19;;;22.11;85.36
55271;BME280;41132;47.162;9.470;2022-07-30T12:03:51;96859.53;;;22.02;89.78
55271;BME280;41132;47.162;9.470;2022-07-30T12:06:17;96847.91;;;21.71;94.55
55271;BME280;41132;47.162;9.470;2022-07-30T12:08:48;96852.03;;;21.67;86.76
55271;BME280;41132;47.162;9.470;2022-07-30T12:11:14;96850.50;;;21.78;84.54
55271;BME280;41132;47.162;9.470;2022-07-30T12:13:40;96831.25;;;21.94;79.56
55271;BME280;41132;47.162;9.470;2022-07-30T12:16:10;96838.03;;;22.15;79.37
55271;BME280;41132;47.162;9.470;2022-07-30T12:18:37;96823.66;;;21.91;82.96
55271;BME280;41132;47.162;9.470;2022-07-30T12:21:07;96835.94;;;21.99;79.77
55271;BME280;41132;47.162;9.470;2022-07-30T12:23:35;96839.44;;;21.99;84.74
55271;BME280;41132;47.162;9.470;2022-07-30T12:26:01;96827.41;;;22.08;77.18
55271;BME280;41132;47.162;9.470;2022-07-30T12:28:30;96831.63;;;22.41;93.01
55271;BME280;41132;47.162;9.470;2022-07-30T12:30:57;96839.81;;;22.28;90.23
55271;BME280;41132;47.162;9.470;2022-07-30T12:33:23;96842.34;;;22.16;88.17
55271;BME280;41132;47.162;9.470;2022-07-30T12:35:51;96840.50;;;22.17;91.61
55271;BME280;41132;47.162;9.470;2022-07-30T12:38:18;96841.53;;;22.16;85.45
55271;BME280;41132;47.162;9.470;2022-07-30T12:43:15;96848.03;;;22.01;88.08
55271;BME280;41132;47.162;9.470;2022-07-30T12:45:40;96848.81;;;21.83;92.17
55271;BME280;41132;47.162;9.470;2022-07-30T12:48:10;96871.66;;;21.79;87.97
55271;BME280;41132;47.162;9.470;2022-07-30T12:50:35;96873.22;;;21.62;90.29
55271;BME280;41132;47.162;9.470;2022-07-30T12:53:00;96858.94;;;21.50;92.41
55271;BME280;41132;47.162;9.470;2022-07-30T12:55:34;96881.06;;;21.57;96.82
55271;BME280;41132;47.162;9.470;2022-07-30T12:58:05;96890.81;;;21.44;93.48
55271;BME280;41132;47.162;9.470;2022-07-30T13:03:20;96887.63;;;20.71;91.91
55271;BME280;41132;47.162;9.470;2022-07-30T13:05:48;96890.88;;;20.79;91.61
55271;BME280;41132;47.162;9.470;2022-07-30T13:08:14;96888.03;;;20.68;92.61
55271;BME280;41132;47.162;9.470;2022-07-30T13:10:57;96897.88;;;20.80;93.41
55271;BME280;41132;47.162;9.470;2022-07-30T13:13:29;96901.53;;;20.86;93.85
55271;BME280;41132;47.162;9.470;2022-07-30T13:16:00;96907.06;;;20.78;97.25
55271;BME280;41132;47.162;9.470;2022-07-30T13:18:27;96894.19;;;20.68;99.44
55271;BME280;41132;47.162;9.470;2022-07-30T13:20:53;96884.75;;;20.72;99.77